createdAt,value
2019-01-29T00:00:28.621Z,3.10
2019-01-29T00:01:28.534Z,3.18
2019-01-29T00:02:28.446Z,3.18
2019-01-29T00:03:28.360Z,3.20
2019-01-29T00:04:28.270Z,3.15
2019-01-29T00:05:28.183Z,3.11
2019-01-29T00:06:28.095Z,3.18
2019-01-29T00:07:28.009Z,3.15
2019-01-29T00:08:27.922Z,3.08
2019-01-29T00:09:27.835Z,3.18
2019-01-29T00:10:27.748Z,3.15
2019-01-29T00:11:27.660Z,3.14
2019-01-29T00:12:27.571Z,3.17
2019-01-29T00:13:27.484Z,3.20
2019-01-29T00:14:27.397Z,3.15
2019-01-29T00:15:27.310Z,3.14
2019-01-29T00:16:27.222Z,3.11
2019-01-29T00:17:27.186Z,3.11
2019-01-29T00:18:27.061Z,3.23
2019-01-29T00:19:26.960Z,3.10
2019-01-29T00:20:26.872Z,3.08
2019-01-29T00:21:26.786Z,3.05
2019-01-29T00:22:33.304Z,3.03
2019-01-29T00:23:26.623Z,3.11
2019-01-29T00:24:26.535Z,3.08
2019-01-29T00:25:26.447Z,3.20
2019-01-29T00:26:26.361Z,3.13
2019-01-29T00:27:26.273Z,3.14
2019-01-29T00:28:26.186Z,3.13
2019-01-29T00:29:26.098Z,3.14
2019-01-29T00:30:26.015Z,3.17
2019-01-29T00:31:25.924Z,3.03
2019-01-29T00:32:25.844Z,3.08
2019-01-29T00:33:25.748Z,3.13
2019-01-29T00:34:25.661Z,3.11
2019-01-29T00:35:25.573Z,3.13
2019-01-29T00:36:25.487Z,3.13
2019-01-29T00:37:25.415Z,3.11
2019-01-29T00:38:25.313Z,3.05
2019-01-29T00:39:25.224Z,3.06
2019-01-29T00:40:25.139Z,3.08
2019-01-29T00:41:25.050Z,3.06
2019-01-29T00:42:24.962Z,3.14
2019-01-29T00:43:24.876Z,3.11
2019-01-29T00:44:24.788Z,3.13
2019-01-29T00:45:24.700Z,3.13
2019-01-29T00:46:24.614Z,3.14
2019-01-29T00:47:24.537Z,3.13
2019-01-29T00:48:24.438Z,3.08
2019-01-29T00:49:24.352Z,3.02
2019-01-29T00:50:24.275Z,3.14
2019-01-29T00:51:24.197Z,3.08
2019-01-29T00:52:24.100Z,3.14
2019-01-29T00:53:24.013Z,3.00
2019-01-29T00:54:23.938Z,2.96
2019-01-29T00:55:23.841Z,3.02
2019-01-29T00:56:23.750Z,3.00
2019-01-29T00:57:23.667Z,2.92
2019-01-29T00:58:23.576Z,2.95
2019-01-29T00:59:23.489Z,3.03
2019-01-29T01:00:23.401Z,3.02
2019-01-29T01:01:23.326Z,3.06
2019-01-29T01:02:23.229Z,3.10
2019-01-29T01:03:23.140Z,3.03
2019-01-29T01:04:23.052Z,2.99
2019-01-29T01:05:22.965Z,3.00
2019-01-29T01:06:22.877Z,3.06
2019-01-29T01:07:22.790Z,3.02
2019-01-29T01:08:22.702Z,2.99
2019-01-29T01:09:22.616Z,3.05
2019-01-29T01:10:22.528Z,3.03
2019-01-29T01:11:22.441Z,2.97
2019-01-29T01:12:22.353Z,2.92
2019-01-29T01:13:22.265Z,2.90
2019-01-29T01:14:22.178Z,2.89
2019-01-29T01:15:22.092Z,2.85
2019-01-29T01:16:22.003Z,2.87
2019-01-29T01:17:21.917Z,2.81
2019-01-29T01:18:21.829Z,2.79
2019-01-29T01:19:21.753Z,2.71
2019-01-29T01:20:21.654Z,2.63
2019-01-29T01:21:21.578Z,2.61
2019-01-29T01:22:21.492Z,2.56
2019-01-29T01:23:21.404Z,2.59
2019-01-29T01:24:21.305Z,2.72
2019-01-29T01:25:21.229Z,2.54
2019-01-29T01:26:21.142Z,2.52
2019-01-29T01:27:21.054Z,2.46
2019-01-29T01:28:20.967Z,2.48
2019-01-29T01:29:20.880Z,2.43
2019-01-29T01:30:20.797Z,2.39
2019-01-29T01:31:20.704Z,2.36
2019-01-29T01:32:20.618Z,2.43
2019-01-29T01:33:20.529Z,2.34
2019-01-29T01:34:20.444Z,2.38
2019-01-29T01:35:20.355Z,2.38
2019-01-29T01:36:20.257Z,2.34
2019-01-29T01:37:20.179Z,2.24
2019-01-29T01:38:20.093Z,2.30
2019-01-29T01:39:20.020Z,2.17
2019-01-29T01:40:19.918Z,2.21
2019-01-29T01:41:19.822Z,2.17
2019-01-29T01:42:19.731Z,1.98
2019-01-29T01:43:19.646Z,2.02
2019-01-29T01:44:19.556Z,2.10
2019-01-29T01:45:19.469Z,1.95
2019-01-29T01:46:19.381Z,2.09
2019-01-29T01:47:19.294Z,2.07
2019-01-29T01:48:19.206Z,2.05
2019-01-29T01:49:19.119Z,2.05
2019-01-29T01:50:19.031Z,2.09
2019-01-29T01:51:18.944Z,2.10
2019-01-29T01:52:18.872Z,2.10
2019-01-29T01:53:18.769Z,2.09
2019-01-29T01:54:18.681Z,2.23
2019-01-29T01:55:18.595Z,2.21
2019-01-29T01:56:18.507Z,2.21
2019-01-29T01:57:18.424Z,2.20
2019-01-29T01:58:18.332Z,2.28
2019-01-29T01:59:18.247Z,2.28
2019-01-29T02:00:18.157Z,2.28
2019-01-29T02:01:18.071Z,2.27
2019-01-29T02:02:17.986Z,2.27
2019-01-29T02:03:17.895Z,2.39
2019-01-29T02:04:17.808Z,2.38
2019-01-29T02:05:17.721Z,2.38
2019-01-29T02:06:17.632Z,2.41
2019-01-29T02:07:17.547Z,2.36
2019-01-29T02:08:17.458Z,2.39
2019-01-29T02:09:17.372Z,2.35
2019-01-29T02:10:17.282Z,2.35
2019-01-29T02:11:17.196Z,2.41
2019-01-29T02:12:17.108Z,2.39
2019-01-29T02:13:17.010Z,2.38
2019-01-29T02:14:16.936Z,2.39
2019-01-29T02:15:16.847Z,2.43
2019-01-29T02:16:16.748Z,2.35
2019-01-29T02:17:16.659Z,2.45
2019-01-29T02:18:16.576Z,2.41
2019-01-29T02:19:16.485Z,2.36
2019-01-29T02:20:16.405Z,2.48
2019-01-29T02:21:16.309Z,2.48
2019-01-29T02:22:16.223Z,2.46
2019-01-29T02:23:16.135Z,2.41
2019-01-29T02:24:16.048Z,2.41
2019-01-29T02:25:15.960Z,2.45
2019-01-29T02:26:15.874Z,2.43
2019-01-29T02:27:15.786Z,2.41
2019-01-29T02:28:15.698Z,2.41
2019-01-29T02:29:15.623Z,2.41
2019-01-29T02:30:15.526Z,2.43
2019-01-29T02:31:15.436Z,2.41
2019-01-29T02:32:15.348Z,2.38
2019-01-29T02:33:15.273Z,2.35
2019-01-29T02:34:15.174Z,2.43
2019-01-29T02:35:15.088Z,2.42
2019-01-29T02:36:14.998Z,2.41
2019-01-29T02:37:14.912Z,2.36
2019-01-29T02:38:14.838Z,2.42
2019-01-29T02:39:14.737Z,2.35
2019-01-29T02:40:14.650Z,2.34
2019-01-29T02:41:14.561Z,2.41
2019-01-29T02:42:14.476Z,2.36
2019-01-29T02:43:14.386Z,2.39
2019-01-29T02:44:14.303Z,2.39
2019-01-29T02:45:14.213Z,2.24
2019-01-29T02:46:14.125Z,2.24
2019-01-29T02:47:14.038Z,2.23
2019-01-29T02:48:13.951Z,2.20
2019-01-29T02:49:13.864Z,2.18
2019-01-29T02:50:13.764Z,2.16
2019-01-29T02:51:13.687Z,2.28
2019-01-29T02:52:13.588Z,2.23
2019-01-29T02:53:18.305Z,2.20
2019-01-29T02:54:13.426Z,2.25
2019-01-29T02:55:13.327Z,2.23
2019-01-29T02:56:13.238Z,2.10
2019-01-29T02:57:13.155Z,2.12
2019-01-29T02:58:13.063Z,2.12
2019-01-29T02:59:12.977Z,2.06
2019-01-29T03:00:12.892Z,2.05
2019-01-29T03:01:12.801Z,2.05
2019-01-29T03:02:12.716Z,1.99
2019-01-29T03:03:12.627Z,1.95
2019-01-29T03:04:12.539Z,1.93
2019-01-29T03:05:12.453Z,1.88
2019-01-29T03:06:12.364Z,1.93
2019-01-29T03:07:12.284Z,1.99
2019-01-29T03:08:12.189Z,1.93
2019-01-29T03:09:12.104Z,2.02
2019-01-29T03:10:12.014Z,1.90
2019-01-29T03:11:11.928Z,1.80
2019-01-29T03:12:11.852Z,1.86
2019-01-29T03:13:11.754Z,1.86
2019-01-29T03:14:11.669Z,1.84
2019-01-29T03:15:11.579Z,1.76
2019-01-29T03:16:11.490Z,1.80
2019-01-29T03:17:11.390Z,1.80
2019-01-29T03:18:11.315Z,1.72
2019-01-29T03:19:11.216Z,1.76
2019-01-29T03:20:11.133Z,1.69
2019-01-29T03:21:11.042Z,1.76
2019-01-29T03:22:10.956Z,1.77
2019-01-29T03:23:10.868Z,1.66
2019-01-29T03:24:10.781Z,1.76
2019-01-29T03:25:10.692Z,1.62
2019-01-29T03:26:10.603Z,1.60
2019-01-29T03:27:10.516Z,1.60
2019-01-29T03:28:10.430Z,1.63
2019-01-29T03:29:10.345Z,1.52
2019-01-29T03:30:10.259Z,1.60
2019-01-29T03:31:10.167Z,1.62
2019-01-29T03:32:10.081Z,1.58
2019-01-29T03:33:09.993Z,1.65
2019-01-29T03:34:09.893Z,1.60
2019-01-29T03:35:09.805Z,1.66
2019-01-29T03:36:09.718Z,1.66
2019-01-29T03:37:09.631Z,1.73
2019-01-29T03:38:09.543Z,1.59
2019-01-29T03:39:09.464Z,1.54
2019-01-29T03:40:09.380Z,1.58
2019-01-29T03:41:09.281Z,1.58
2019-01-29T03:42:09.197Z,1.58
2019-01-29T03:43:09.106Z,1.51
2019-01-29T03:44:09.019Z,1.59
2019-01-29T03:45:08.932Z,1.55
2019-01-29T03:46:08.855Z,1.48
2019-01-29T03:47:08.757Z,1.60
2019-01-29T03:48:08.668Z,1.55
2019-01-29T03:49:08.569Z,1.48
2019-01-29T03:50:08.483Z,1.62
2019-01-29T03:51:08.397Z,1.45
2019-01-29T03:52:08.306Z,1.41
2019-01-29T03:53:08.219Z,1.63
2019-01-29T03:54:08.133Z,1.52
2019-01-29T03:55:08.050Z,1.62
2019-01-29T03:56:07.958Z,1.51
2019-01-29T03:57:07.871Z,1.60
2019-01-29T03:58:07.782Z,1.55
2019-01-29T03:59:07.707Z,1.45
2019-01-29T04:00:07.609Z,1.48
2019-01-29T04:01:07.522Z,1.63
2019-01-29T04:02:07.438Z,1.65
2019-01-29T04:03:07.345Z,1.58
2019-01-29T04:04:07.245Z,1.54
2019-01-29T04:05:07.158Z,1.51
2019-01-29T04:06:07.070Z,1.58
2019-01-29T04:07:06.986Z,1.59
2019-01-29T04:08:06.909Z,1.58
2019-01-29T04:09:06.811Z,1.55
2019-01-29T04:10:06.720Z,1.55
2019-01-29T04:11:06.635Z,1.62
2019-01-29T04:12:06.545Z,1.58
2019-01-29T04:13:06.459Z,1.48
2019-01-29T04:14:06.371Z,1.51
2019-01-29T04:15:06.296Z,1.47
2019-01-29T04:16:06.197Z,1.59
2019-01-29T04:17:06.104Z,1.50
2019-01-29T04:18:06.012Z,1.47
2019-01-29T04:19:05.923Z,1.47
2019-01-29T04:20:05.836Z,1.50
2019-01-29T04:21:05.746Z,1.51
2019-01-29T04:22:05.663Z,1.45
2019-01-29T04:23:05.604Z,1.59
2019-01-29T04:24:05.485Z,1.59
2019-01-29T04:25:05.403Z,1.54
2019-01-29T04:26:05.310Z,1.47
2019-01-29T04:27:05.225Z,1.51
2019-01-29T04:28:05.136Z,1.50
2019-01-29T04:29:05.047Z,1.50
2019-01-29T04:30:04.960Z,1.44
2019-01-29T04:31:04.874Z,1.54
2019-01-29T04:32:04.774Z,1.45
2019-01-29T04:33:04.688Z,1.50
2019-01-29T04:34:04.601Z,1.48
2019-01-29T04:35:04.511Z,1.48
2019-01-29T04:36:04.425Z,1.50
2019-01-29T04:37:04.338Z,1.34
2019-01-29T04:38:04.248Z,1.40
2019-01-29T04:39:04.163Z,1.48
2019-01-29T04:40:04.086Z,1.50
2019-01-29T04:41:03.987Z,1.47
2019-01-29T04:42:03.900Z,1.30
2019-01-29T04:43:03.816Z,1.36
2019-01-29T04:44:03.725Z,1.40
2019-01-29T04:45:03.625Z,1.34
2019-01-29T04:46:03.543Z,1.26
2019-01-29T04:47:03.466Z,1.26
2019-01-29T04:48:03.364Z,1.22
2019-01-29T04:49:03.276Z,1.23
2019-01-29T04:50:03.191Z,1.22
2019-01-29T04:51:03.113Z,1.23
2019-01-29T04:52:03.013Z,1.22
2019-01-29T04:53:02.925Z,1.24
2019-01-29T04:54:02.838Z,1.18
2019-01-29T04:55:02.750Z,1.22
2019-01-29T04:56:02.663Z,1.23
2019-01-29T04:57:02.578Z,1.24
2019-01-29T04:58:02.488Z,1.27
2019-01-29T04:59:02.400Z,1.23
2019-01-29T05:00:02.300Z,1.26
2019-01-29T05:01:02.219Z,1.32
2019-01-29T05:02:02.125Z,1.23
2019-01-29T05:03:02.038Z,1.20
2019-01-29T05:04:01.951Z,1.18
2019-01-29T05:05:01.865Z,1.24
2019-01-29T05:06:01.777Z,1.24
2019-01-29T05:07:01.690Z,1.27
2019-01-29T05:08:01.602Z,1.12
2019-01-29T05:09:01.517Z,1.11
2019-01-29T05:10:01.426Z,1.09
2019-01-29T05:11:01.340Z,1.08
2019-01-29T05:12:01.240Z,1.08
2019-01-29T05:13:01.165Z,1.15
2019-01-29T05:14:01.065Z,1.08
2019-01-29T05:15:00.976Z,1.09
2019-01-29T05:16:00.890Z,1.16
2019-01-29T05:17:00.806Z,1.14
2019-01-29T05:18:00.717Z,1.14
2019-01-29T05:19:00.627Z,1.11
2019-01-29T05:20:00.541Z,1.09
2019-01-29T05:21:00.457Z,1.09
2019-01-29T05:22:00.367Z,1.11
2019-01-29T05:23:00.289Z,1.08
2019-01-29T05:24:06.605Z,1.08
2019-01-29T05:25:00.144Z,1.06
2019-01-29T05:26:00.003Z,1.11
2019-01-29T05:26:59.916Z,1.00
2019-01-29T05:27:59.829Z,1.08
2019-01-29T05:28:59.753Z,1.00
2019-01-29T05:29:59.654Z,0.98
2019-01-29T05:30:59.567Z,0.93
2019-01-29T05:31:59.480Z,0.93
2019-01-29T05:32:59.392Z,0.91
2019-01-29T05:33:59.307Z,0.76
2019-01-29T05:34:59.216Z,0.86
2019-01-29T05:35:59.143Z,0.83
2019-01-29T05:36:59.042Z,0.75
2019-01-29T05:37:58.947Z,0.80
2019-01-29T05:38:58.866Z,0.76
2019-01-29T05:39:58.773Z,0.70
2019-01-29T05:40:58.679Z,0.73
2019-01-29T05:41:58.592Z,0.62
2019-01-29T05:42:58.507Z,0.69
2019-01-29T05:43:58.419Z,0.65
2019-01-29T05:44:58.332Z,0.68
2019-01-29T05:45:58.243Z,0.58
2019-01-29T05:46:58.159Z,0.57
2019-01-29T05:47:58.056Z,0.53
2019-01-29T05:48:57.973Z,0.65
2019-01-29T05:49:57.880Z,0.57
2019-01-29T05:50:57.794Z,0.57
2019-01-29T05:51:57.707Z,0.58
2019-01-29T05:52:57.619Z,0.50
2019-01-29T05:53:57.531Z,0.53
2019-01-29T05:54:57.444Z,0.47
2019-01-29T05:55:57.369Z,0.42
2019-01-29T05:56:57.273Z,0.39
2019-01-29T05:57:57.169Z,0.44
2019-01-29T05:58:57.081Z,0.32
2019-01-29T05:59:56.995Z,0.36
2019-01-29T06:00:56.906Z,0.21
2019-01-29T06:01:56.820Z,0.31
2019-01-29T06:02:56.733Z,0.23
2019-01-29T06:03:56.645Z,0.26
2019-01-29T06:04:56.559Z,0.28
2019-01-29T06:05:56.458Z,0.23
2019-01-29T06:06:56.372Z,0.26
2019-01-29T06:07:56.282Z,0.20
2019-01-29T06:08:56.195Z,0.26
2019-01-29T06:09:56.120Z,0.21
2019-01-29T06:10:56.021Z,0.26
2019-01-29T06:11:55.932Z,0.21
2019-01-29T06:12:55.847Z,0.29
2019-01-29T06:13:55.758Z,0.23
2019-01-29T06:14:55.660Z,0.23
2019-01-29T06:15:55.571Z,0.20
2019-01-29T06:16:55.483Z,0.21
2019-01-29T06:17:55.398Z,0.20
2019-01-29T06:18:55.309Z,0.20
2019-01-29T06:19:55.296Z,0.14
2019-01-29T06:20:55.134Z,0.10
2019-01-29T06:21:55.038Z,0.13
2019-01-29T06:22:54.948Z,0.10
2019-01-29T06:23:54.859Z,0.14
2019-01-29T06:24:54.773Z,0.11
2019-01-29T06:25:54.686Z,0.08
2019-01-29T06:26:54.599Z,0.08
2019-01-29T06:27:54.509Z,0.10
2019-01-29T06:28:54.422Z,0.14
2019-01-29T06:29:54.336Z,0.14
2019-01-29T06:30:54.236Z,0.11
2019-01-29T06:31:54.148Z,0.03
2019-01-29T06:32:54.066Z,0.00
2019-01-29T06:33:53.977Z,0.00
2019-01-29T06:34:53.885Z,0.07
2019-01-29T06:35:53.799Z,0.00
2019-01-29T06:36:53.712Z,-0.04
2019-01-29T06:37:53.612Z,0.02
2019-01-29T06:38:53.529Z,0.02
2019-01-29T06:39:53.436Z,-0.03
2019-01-29T06:40:53.348Z,0.04
2019-01-29T06:41:53.260Z,0.00
2019-01-29T06:42:53.174Z,-0.05
2019-01-29T06:43:53.100Z,-0.05
2019-01-29T06:44:53.013Z,-0.07
2019-01-29T06:45:52.899Z,-0.03
2019-01-29T06:46:52.811Z,-0.07
2019-01-29T06:47:52.786Z,-0.07
2019-01-29T06:48:53.895Z,0.02
2019-01-29T06:49:52.549Z,0.08
2019-01-29T06:50:52.461Z,0.00
2019-01-29T06:51:52.375Z,0.08
2019-01-29T06:52:52.277Z,0.08
2019-01-29T06:53:52.187Z,0.10
2019-01-29T06:54:52.100Z,0.18
2019-01-29T06:55:52.012Z,0.10
2019-01-29T06:56:51.926Z,0.13
2019-01-29T06:57:55.664Z,0.17
2019-01-29T06:58:51.753Z,0.24
2019-01-29T06:59:51.662Z,0.18
2019-01-29T07:00:51.563Z,0.26
2019-01-29T07:01:51.480Z,0.31
2019-01-29T07:02:51.401Z,0.26
2019-01-29T07:03:51.301Z,0.41
2019-01-29T07:04:51.213Z,0.44
2019-01-29T07:05:51.131Z,0.47
2019-01-29T07:06:51.037Z,0.47
2019-01-29T07:07:50.943Z,0.57
2019-01-29T07:08:50.851Z,0.49
2019-01-29T07:09:50.764Z,0.55
2019-01-29T07:10:50.677Z,0.62
2019-01-29T07:11:50.590Z,0.61
2019-01-29T07:12:50.503Z,0.66
2019-01-29T07:13:50.414Z,0.65
2019-01-29T07:14:50.327Z,0.66
2019-01-29T07:15:50.239Z,0.62
2019-01-29T07:16:50.140Z,0.73
2019-01-29T07:17:50.053Z,0.73
2019-01-29T07:18:49.965Z,0.66
2019-01-29T07:19:49.879Z,0.69
2019-01-29T07:20:49.789Z,0.79
2019-01-29T07:21:49.703Z,0.75
2019-01-29T07:22:49.628Z,0.72
2019-01-29T07:23:49.528Z,0.80
2019-01-29T07:24:49.428Z,0.86
2019-01-29T07:25:49.341Z,0.86
2019-01-29T07:26:49.254Z,0.73
2019-01-29T07:27:49.165Z,0.93
2019-01-29T07:28:49.079Z,0.79
2019-01-29T07:29:48.990Z,0.96
2019-01-29T07:30:48.904Z,0.91
2019-01-29T07:31:48.828Z,0.87
2019-01-29T07:32:48.730Z,0.96
2019-01-29T07:33:48.641Z,0.98
2019-01-29T07:34:48.542Z,0.97
2019-01-29T07:35:48.456Z,0.97
2019-01-29T07:36:48.368Z,0.94
2019-01-29T07:37:48.279Z,0.97
2019-01-29T07:38:48.195Z,0.97
2019-01-29T07:39:48.104Z,1.02
2019-01-29T07:40:48.054Z,1.06
2019-01-29T07:41:47.930Z,1.12
2019-01-29T07:42:47.845Z,1.12
2019-01-29T07:43:47.743Z,1.22
2019-01-29T07:44:47.654Z,1.20
2019-01-29T07:45:47.569Z,1.18
2019-01-29T07:46:47.481Z,1.15
2019-01-29T07:47:47.393Z,1.18
2019-01-29T07:48:47.309Z,1.23
2019-01-29T07:49:47.218Z,1.23
2019-01-29T07:50:47.137Z,1.24
2019-01-29T07:51:47.042Z,1.18
2019-01-29T07:52:46.957Z,1.24
2019-01-29T07:53:46.868Z,1.27
2019-01-29T07:54:51.264Z,1.37
2019-01-29T07:55:46.694Z,1.32
2019-01-29T07:56:46.593Z,1.37
2019-01-29T07:57:46.506Z,1.42
2019-01-29T07:58:46.422Z,1.47
2019-01-29T07:59:46.332Z,1.42
2019-01-29T08:00:46.245Z,1.44
2019-01-29T08:01:46.157Z,1.54
2019-01-29T08:02:46.069Z,1.51
2019-01-29T08:03:45.983Z,1.50
2019-01-29T08:04:45.894Z,1.51
2019-01-29T08:05:45.817Z,1.50
2019-01-29T08:06:45.722Z,1.59
2019-01-29T08:07:45.621Z,1.63
2019-01-29T08:08:45.533Z,1.48
2019-01-29T08:09:45.445Z,1.48
2019-01-29T08:10:45.357Z,1.40
2019-01-29T08:11:45.272Z,1.45
2019-01-29T08:12:45.185Z,1.51
2019-01-29T08:13:45.095Z,1.45
2019-01-29T08:14:45.011Z,1.55
2019-01-29T08:15:44.920Z,1.40
2019-01-29T08:16:44.834Z,1.42
2019-01-29T08:17:44.745Z,1.48
2019-01-29T08:18:44.659Z,1.47
2019-01-29T08:19:44.570Z,1.50
2019-01-29T08:20:44.484Z,1.63
2019-01-29T08:21:44.408Z,1.52
2019-01-29T08:22:44.310Z,1.59
2019-01-29T08:23:44.210Z,1.60
2019-01-29T08:24:51.626Z,1.54
2019-01-29T08:25:47.884Z,1.55
2019-01-29T08:26:43.948Z,1.59
2019-01-29T08:27:43.860Z,1.55
2019-01-29T08:28:43.771Z,1.59
2019-01-29T08:29:43.685Z,1.55
2019-01-29T08:30:43.597Z,1.63
2019-01-29T08:31:43.510Z,1.73
2019-01-29T08:32:43.422Z,1.72
2019-01-29T08:33:43.335Z,1.66
2019-01-29T08:34:43.260Z,1.79
2019-01-29T08:35:43.163Z,1.77
2019-01-29T08:36:43.075Z,1.72
2019-01-29T08:37:42.990Z,1.79
2019-01-29T08:38:42.897Z,1.80
2019-01-29T08:39:42.811Z,1.73
2019-01-29T08:40:42.723Z,1.79
2019-01-29T08:41:42.645Z,1.76
2019-01-29T08:42:42.562Z,1.87
2019-01-29T08:43:42.462Z,1.81
2019-01-29T08:44:42.362Z,1.81
2019-01-29T08:45:42.275Z,1.87
2019-01-29T08:46:42.192Z,1.91
2019-01-29T08:47:42.098Z,1.99
2019-01-29T08:48:42.011Z,1.99
2019-01-29T08:49:41.923Z,1.87
2019-01-29T08:50:41.837Z,1.93
2019-01-29T08:51:41.763Z,1.98
2019-01-29T08:52:41.664Z,2.02
2019-01-29T08:53:41.574Z,1.99
2019-01-29T08:54:41.489Z,1.99
2019-01-29T08:55:41.400Z,2.00
2019-01-29T08:56:41.312Z,1.95
2019-01-29T08:57:41.227Z,1.98
2019-01-29T08:58:41.139Z,2.09
2019-01-29T08:59:41.050Z,2.05
2019-01-29T09:00:40.962Z,1.95
2019-01-29T09:01:40.876Z,1.86
2019-01-29T09:02:40.788Z,1.99
2019-01-29T09:03:40.700Z,2.07
2019-01-29T09:04:40.613Z,2.07
2019-01-29T09:05:40.525Z,2.06
2019-01-29T09:06:40.439Z,2.09
2019-01-29T09:07:40.351Z,1.99
2019-01-29T09:08:40.267Z,2.06
2019-01-29T09:09:40.175Z,1.99
2019-01-29T09:10:40.089Z,1.95
2019-01-29T09:11:40.001Z,2.00
2019-01-29T09:12:39.913Z,1.98
2019-01-29T09:13:40.567Z,1.99
2019-01-29T09:14:39.739Z,2.09
2019-01-29T09:15:39.651Z,2.09
2019-01-29T09:16:39.564Z,2.07
2019-01-29T09:17:39.476Z,2.12
2019-01-29T09:18:39.389Z,2.12
2019-01-29T09:19:39.302Z,2.07
2019-01-29T09:20:39.215Z,2.09
2019-01-29T09:21:39.128Z,2.21
2019-01-29T09:22:39.040Z,2.17
2019-01-29T09:23:38.958Z,2.09
2019-01-29T09:24:38.865Z,2.07
2019-01-29T09:25:38.777Z,2.16
2019-01-29T09:26:38.690Z,2.24
2019-01-29T09:27:38.619Z,2.14
2019-01-29T09:28:38.531Z,2.31
2019-01-29T09:29:38.429Z,2.23
2019-01-29T09:30:38.341Z,2.25
2019-01-29T09:31:38.253Z,2.34
2019-01-29T09:32:38.155Z,2.25
2019-01-29T09:33:38.078Z,2.38
2019-01-29T09:34:37.991Z,2.53
2019-01-29T09:35:37.916Z,2.54
2019-01-29T09:36:37.816Z,2.41
2019-01-29T09:37:37.728Z,2.41
2019-01-29T09:38:37.643Z,2.41
2019-01-29T09:39:37.553Z,2.39
2019-01-29T09:40:37.455Z,2.39
2019-01-29T09:41:37.378Z,2.43
2019-01-29T09:42:37.294Z,2.48
2019-01-29T09:43:37.207Z,2.48
2019-01-29T09:44:37.117Z,2.53
2019-01-29T09:45:37.029Z,2.61
2019-01-29T09:46:36.945Z,2.56
2019-01-29T09:47:36.872Z,2.57
2019-01-29T09:48:36.767Z,2.52
2019-01-29T09:49:36.679Z,2.54
2019-01-29T09:50:36.597Z,2.54
2019-01-29T09:51:36.507Z,2.56
2019-01-29T09:52:36.418Z,2.54
2019-01-29T09:53:36.331Z,2.59
2019-01-29T09:54:36.243Z,2.61
2019-01-29T09:55:36.156Z,2.52
2019-01-29T09:56:36.068Z,2.54
2019-01-29T09:57:35.980Z,2.54
2019-01-29T09:58:35.894Z,2.46
2019-01-29T09:59:35.808Z,2.49
2019-01-29T10:00:35.720Z,2.56
2019-01-29T10:01:35.634Z,2.52
2019-01-29T10:02:35.544Z,2.49
2019-01-29T10:03:35.457Z,2.54
2019-01-29T10:04:35.369Z,2.56
2019-01-29T10:05:35.295Z,2.48
2019-01-29T10:06:35.195Z,2.54
2019-01-29T10:07:35.108Z,2.56
2019-01-29T10:08:35.019Z,2.66
2019-01-29T10:09:34.931Z,2.56
2019-01-29T10:10:34.845Z,2.64
2019-01-29T10:11:34.757Z,2.64
2019-01-29T10:12:34.675Z,2.71
2019-01-29T10:13:34.581Z,2.59
2019-01-29T10:14:34.496Z,2.56
2019-01-29T10:15:34.407Z,2.59
2019-01-29T10:16:34.320Z,2.57
2019-01-29T10:17:34.233Z,2.66
2019-01-29T10:18:34.145Z,2.60
2019-01-29T10:19:34.058Z,2.60
2019-01-29T10:20:33.976Z,2.64
2019-01-29T10:21:33.882Z,2.54
2019-01-29T10:22:33.797Z,2.54
2019-01-29T10:23:33.709Z,2.54
2019-01-29T10:24:33.621Z,2.71
2019-01-29T10:25:37.855Z,2.59
2019-01-29T10:26:33.447Z,2.61
2019-01-29T10:27:33.359Z,2.69
2019-01-29T10:28:33.274Z,2.67
2019-01-29T10:29:33.185Z,2.78
2019-01-29T10:30:33.109Z,2.82
2019-01-29T10:31:33.012Z,2.77
2019-01-29T10:32:32.939Z,2.89
2019-01-29T10:33:32.847Z,2.78
2019-01-29T10:34:32.761Z,2.90
2019-01-29T10:35:32.673Z,2.85
2019-01-29T10:36:32.585Z,2.95
2019-01-29T10:37:32.499Z,2.90
2019-01-29T10:38:32.409Z,2.87
2019-01-29T10:39:32.322Z,3.03
2019-01-29T10:40:32.234Z,3.11
2019-01-29T10:41:32.148Z,3.05
2019-01-29T10:42:32.141Z,3.06
2019-01-29T10:43:31.976Z,3.20
2019-01-29T10:44:31.885Z,3.26
2019-01-29T10:45:31.799Z,3.36
2019-01-29T10:46:31.711Z,3.29
2019-01-29T10:47:31.627Z,3.21
2019-01-29T10:48:31.536Z,3.18
2019-01-29T10:49:31.456Z,3.18
2019-01-29T10:50:31.367Z,3.17
2019-01-29T10:51:31.274Z,3.31
2019-01-29T10:52:31.186Z,3.28
2019-01-29T10:53:31.100Z,3.24
2019-01-29T10:54:31.024Z,3.29
2019-01-29T10:55:30.938Z,3.33
2019-01-29T10:56:30.850Z,3.33
2019-01-29T10:57:30.762Z,3.33
2019-01-29T10:58:30.674Z,3.26
2019-01-29T10:59:30.586Z,3.32
2019-01-29T11:00:30.506Z,3.31
2019-01-29T11:01:30.414Z,3.20
2019-01-29T11:02:30.328Z,3.20
2019-01-29T11:03:30.253Z,3.32
2019-01-29T11:04:30.150Z,3.29
2019-01-29T11:05:30.064Z,3.35
2019-01-29T11:06:29.976Z,3.33
2019-01-29T11:07:29.888Z,3.31
2019-01-29T11:08:29.812Z,3.29
2019-01-29T11:09:29.725Z,3.43
2019-01-29T11:10:29.639Z,3.36
2019-01-29T11:11:29.553Z,3.47
2019-01-29T11:12:29.463Z,3.40
2019-01-29T11:13:29.376Z,3.26
2019-01-29T11:14:29.288Z,3.31
2019-01-29T11:15:29.204Z,3.32
2019-01-29T11:16:29.116Z,3.33
2019-01-29T11:17:29.073Z,3.39
2019-01-29T11:18:28.938Z,3.45
2019-01-29T11:19:28.852Z,3.36
2019-01-29T11:20:28.764Z,3.31
2019-01-29T11:21:28.677Z,3.32
2019-01-29T11:22:28.591Z,3.31
2019-01-29T11:23:28.514Z,3.32
2019-01-29T11:24:28.427Z,3.29
2019-01-29T11:25:28.339Z,3.29
2019-01-29T11:26:28.253Z,3.39
2019-01-29T11:27:28.166Z,3.31
2019-01-29T11:28:28.078Z,3.33
2019-01-29T11:29:27.990Z,3.24
2019-01-29T11:30:27.902Z,3.21
2019-01-29T11:31:29.559Z,3.35
2019-01-29T11:32:27.730Z,3.32
2019-01-29T11:33:27.640Z,3.35
2019-01-29T11:34:27.554Z,3.39
2019-01-29T11:35:27.481Z,3.31
2019-01-29T11:36:27.379Z,3.40
2019-01-29T11:37:27.304Z,3.50
2019-01-29T11:38:27.216Z,3.48
2019-01-29T11:39:27.150Z,3.51
2019-01-29T11:40:27.041Z,3.54
2019-01-29T11:41:26.958Z,3.66
2019-01-29T11:42:26.866Z,3.60
2019-01-29T11:43:26.779Z,3.61
2019-01-29T11:44:26.694Z,3.68
2019-01-29T11:45:26.669Z,3.73
2019-01-29T11:46:26.516Z,3.72
2019-01-29T11:47:26.434Z,3.66
2019-01-29T11:48:26.347Z,3.57
2019-01-29T11:49:26.255Z,3.70
2019-01-29T11:50:26.180Z,3.68
2019-01-29T11:51:26.093Z,3.50
2019-01-29T11:52:26.005Z,3.40
2019-01-29T11:53:25.930Z,3.51
2019-01-29T11:54:25.834Z,3.60
2019-01-29T11:55:25.742Z,3.57
2019-01-29T11:56:25.661Z,3.54
2019-01-29T11:57:25.567Z,3.60
2019-01-29T11:58:25.481Z,3.50
2019-01-29T11:59:25.424Z,3.58
2019-01-29T12:00:25.313Z,3.57
2019-01-29T12:01:25.219Z,3.54
2019-01-29T12:02:28.381Z,3.55
2019-01-29T12:03:25.045Z,3.66
2019-01-29T12:04:24.970Z,3.66
2019-01-29T12:05:24.882Z,3.55
2019-01-29T12:06:24.793Z,3.62
2019-01-29T12:07:24.724Z,3.55
2019-01-29T12:08:24.621Z,3.52
2019-01-29T12:09:24.532Z,3.62
2019-01-29T12:10:24.443Z,3.66
2019-01-29T12:11:24.358Z,3.76
2019-01-29T12:12:24.270Z,3.68
2019-01-29T12:13:24.183Z,3.78
2019-01-29T12:14:24.096Z,3.75
2019-01-29T12:15:24.019Z,3.80
2019-01-29T12:16:23.935Z,3.80
2019-01-29T12:17:23.844Z,3.93
2019-01-29T12:18:23.757Z,3.97
2019-01-29T12:19:23.670Z,3.93
2019-01-29T12:20:23.583Z,4.06
2019-01-29T12:21:23.495Z,4.18
2019-01-29T12:22:23.409Z,4.15
2019-01-29T12:23:23.320Z,4.15
2019-01-29T12:24:23.233Z,4.02
2019-01-29T12:25:23.146Z,4.08
2019-01-29T12:26:23.070Z,4.02
2019-01-29T12:27:22.984Z,4.02
2019-01-29T12:28:22.908Z,3.97
2019-01-29T12:29:22.811Z,4.00
2019-01-29T12:30:22.724Z,4.20
2019-01-29T12:31:22.634Z,4.23
2019-01-29T12:32:22.546Z,4.26
2019-01-29T12:33:22.461Z,4.18
2019-01-29T12:34:22.371Z,4.33
2019-01-29T12:35:23.750Z,4.44
2019-01-29T12:36:22.210Z,4.34
2019-01-29T12:37:22.122Z,4.29
2019-01-29T12:38:22.035Z,4.20
2019-01-29T12:39:21.947Z,4.36
2019-01-29T12:40:21.860Z,5.35
2019-01-29T12:41:21.772Z,6.19
2019-01-29T12:42:21.685Z,6.99
2019-01-29T12:43:21.598Z,7.43
2019-01-29T12:44:21.522Z,7.52
2019-01-29T12:45:21.436Z,7.83
2019-01-29T12:46:21.347Z,8.15
2019-01-29T12:47:21.260Z,7.67
2019-01-29T12:48:21.173Z,7.39
2019-01-29T12:49:21.098Z,7.83
2019-01-29T12:50:21.011Z,8.30
2019-01-29T12:51:20.923Z,8.70
2019-01-29T12:52:20.837Z,8.71
2019-01-29T12:53:20.761Z,8.73
2019-01-29T12:54:20.675Z,8.70
2019-01-29T12:55:20.591Z,8.92
2019-01-29T12:56:21.572Z,9.31
2019-01-29T12:57:20.424Z,9.39
2019-01-29T12:58:20.337Z,8.98
2019-01-29T12:59:20.262Z,8.95
2019-01-29T13:00:20.174Z,8.81
2019-01-29T13:01:20.092Z,9.39
2019-01-29T13:02:20.000Z,9.23
2019-01-29T13:03:19.924Z,8.79
2019-01-29T13:04:19.839Z,8.37
2019-01-29T13:05:19.750Z,8.02
2019-01-29T13:06:19.676Z,7.30
2019-01-29T13:07:19.589Z,7.50
2019-01-29T13:08:19.522Z,7.50
2019-01-29T13:09:19.426Z,6.85
2019-01-29T13:10:19.339Z,6.81
2019-01-29T13:11:19.267Z,6.95
2019-01-29T13:12:19.187Z,6.91
2019-01-29T13:13:19.089Z,6.30
2019-01-29T13:14:19.013Z,6.00
2019-01-29T13:15:18.925Z,6.01
2019-01-29T13:16:18.850Z,5.97
2019-01-29T13:17:18.765Z,6.15